Terminal Aerodrome Forecast
Issued by NWS Wilmington, OH

Current Version | Previous Version | Text Only | Print | Product List | Glossary Off
Versions: 1 2 3 4 5 6 7 8 9 10 11 12 13 14 15 16 17 18 19 20 21 22 23

000
FTUS41 KILN 241900 AAB
TAFILN
TAF AMD
KILN 241940Z 2420/2518 24013KT P6SM BKN025 OVC050
      TEMPO 2420/2421 P6SM SCT025 OVC050
     FM242200 23009KT P6SM SCT025 SCT050
     FM251000 19005KT P6SM BKN080
     FM251300 15007KT P6SM SCT040 OVC070=

USA.gov is the U.S. government's official web portal to all federal, state and local government web resources and services.